sensor_id;sensor_type;location;lat;lon;timestamp;temperature;humidity
42365;DHT22;28498;54.400;18.566;2024-02-26T00:01:52;2.30;99.90
42365;DHT22;28498;54.400;18.566;2024-02-26T00:04:19;2.30;99.90
42365;DHT22;28498;54.400;18.566;2024-02-26T00:06:46;2.40;99.90
42365;DHT22;28498;54.400;18.566;2024-02-26T00:09:14;2.50;99.90
42365;DHT22;28498;54.400;18.566;2024-02-26T00:11:41;2.50;99.90
42365;DHT22;28498;54.400;18.566;2024-02-26T00:14:08;2.60;99.90
42365;DHT22;28498;54.400;18.566;2024-02-26T00:16:35;2.60;99.90
42365;DHT22;28498;54.400;18.566;2024-02-26T00:19:02;2.70;99.90
42365;DHT22;28498;54.400;18.566;2024-02-26T00:21:30;2.80;99.90
42365;DHT22;28498;54.400;18.566;2024-02-26T00:23:57;2.80;99.90
42365;DHT22;28498;54.400;18.566;2024-02-26T00:26:24;2.80;99.90
42365;DHT22;28498;54.400;18.566;2024-02-26T00:28:51;2.90;99.90
42365;DHT22;28498;54.400;18.566;2024-02-26T00:31:18;3.00;99.90
42365;DHT22;28498;54.400;18.566;2024-02-26T00:33:45;3.00;99.90
42365;DHT22;28498;54.400;18.566;2024-02-26T00:36:13;3.00;99.90
42365;DHT22;28498;54.400;18.566;2024-02-26T00:38:40;3.10;99.90
42365;DHT22;28498;54.400;18.566;2024-02-26T00:41:07;3.10;99.90
42365;DHT22;28498;54.400;18.566;2024-02-26T00:43:34;3.10;99.90
42365;DHT22;28498;54.400;18.566;2024-02-26T00:46:01;3.00;99.90
42365;DHT22;28498;54.400;18.566;2024-02-26T00:48:29;2.90;99.90
42365;DHT22;28498;54.400;18.566;2024-02-26T00:50:56;2.90;99.90
42365;DHT22;28498;54.400;18.566;2024-02-26T00:53:23;2.80;99.90
42365;DHT22;28498;54.400;18.566;2024-02-26T00:55:51;2.70;99.90
42365;DHT22;28498;54.400;18.566;2024-02-26T00:58:18;2.60;99.90
42365;DHT22;28498;54.400;18.566;2024-02-26T01:00:45;2.60;99.90
42365;DHT22;28498;54.400;18.566;2024-02-26T01:03:13;2.70;99.90
42365;DHT22;28498;54.400;18.566;2024-02-26T01:05:40;2.70;99.90
42365;DHT22;28498;54.400;18.566;2024-02-26T01:08:07;2.70;99.90
42365;DHT22;28498;54.400;18.566;2024-02-26T01:10:35;2.70;99.90
42365;DHT22;28498;54.400;18.566;2024-02-26T01:13:02;2.80;99.90
42365;DHT22;28498;54.400;18.566;2024-02-26T01:15:29;2.70;99.90
42365;DHT22;28498;54.400;18.566;2024-02-26T01:17:57;2.70;99.90
42365;DHT22;28498;54.400;18.566;2024-02-26T01:20:24;2.70;99.90
42365;DHT22;28498;54.400;18.566;2024-02-26T01:22:51;2.60;99.90
42365;DHT22;28498;54.400;18.566;2024-02-26T01:25:18;2.60;99.90
42365;DHT22;28498;54.400;18.566;2024-02-26T01:27:45;2.50;99.90
42365;DHT22;28498;54.400;18.566;2024-02-26T01:30:12;2.40;99.90
42365;DHT22;28498;54.400;18.566;2024-02-26T01:32:42;2.50;99.90
42365;DHT22;28498;54.400;18.566;2024-02-26T01:35:10;2.60;99.90
42365;DHT22;28498;54.400;18.566;2024-02-26T01:37:39;2.50;99.90
42365;DHT22;28498;54.400;18.566;2024-02-26T01:40:06;2.40;99.90
42365;DHT22;28498;54.400;18.566;2024-02-26T01:42:38;2.40;99.90
42365;DHT22;28498;54.400;18.566;2024-02-26T01:45:05;2.40;99.90
42365;DHT22;28498;54.400;18.566;2024-02-26T01:47:34;2.40;99.90
42365;DHT22;28498;54.400;18.566;2024-02-26T01:50:01;2.40;99.90
42365;DHT22;28498;54.400;18.566;2024-02-26T01:52:29;2.30;99.90
42365;DHT22;28498;54.400;18.566;2024-02-26T01:54:56;2.30;99.90
42365;DHT22;28498;54.400;18.566;2024-02-26T01:57:23;2.30;99.90
42365;DHT22;28498;54.400;18.566;2024-02-26T01:59:50;2.20;99.90
42365;DHT22;28498;54.400;18.566;2024-02-26T02:02:17;2.20;99.90
42365;DHT22;28498;54.400;18.566;2024-02-26T02:04:44;2.00;99.90
42365;DHT22;28498;54.400;18.566;2024-02-26T02:07:12;1.90;99.90
42365;DHT22;28498;54.400;18.566;2024-02-26T02:09:39;1.80;99.90
42365;DHT22;28498;54.400;18.566;2024-02-26T02:12:07;1.70;99.90
42365;DHT22;28498;54.400;18.566;2024-02-26T02:14:35;1.60;99.90
42365;DHT22;28498;54.400;18.566;2024-02-26T02:17:02;1.60;99.90
42365;DHT22;28498;54.400;18.566;2024-02-26T02:19:29;1.60;99.90
42365;DHT22;28498;54.400;18.566;2024-02-26T02:21:56;1.60;99.90
42365;DHT22;28498;54.400;18.566;2024-02-26T02:24:23;1.70;99.90
42365;DHT22;28498;54.400;18.566;2024-02-26T02:26:50;1.60;99.90
42365;DHT22;28498;54.400;18.566;2024-02-26T02:29:18;1.60;99.90
42365;DHT22;28498;54.400;18.566;2024-02-26T02:31:45;1.50;99.90
42365;DHT22;28498;54.400;18.566;2024-02-26T02:34:12;1.60;99.90
42365;DHT22;28498;54.400;18.566;2024-02-26T02:36:52;1.60;99.90
42365;DHT22;28498;54.400;18.566;2024-02-26T02:39:20;1.60;99.90
42365;DHT22;28498;54.400;18.566;2024-02-26T02:41:48;1.50;99.90
42365;DHT22;28498;54.400;18.566;2024-02-26T02:44:15;1.50;99.90
42365;DHT22;28498;54.400;18.566;2024-02-26T02:46:42;1.50;99.90
42365;DHT22;28498;54.400;18.566;2024-02-26T02:49:09;1.40;99.90
42365;DHT22;28498;54.400;18.566;2024-02-26T02:51:37;1.40;99.90
42365;DHT22;28498;54.400;18.566;2024-02-26T02:54:05;1.30;99.90
42365;DHT22;28498;54.400;18.566;2024-02-26T02:56:32;1.30;99.90
42365;DHT22;28498;54.400;18.566;2024-02-26T02:58:59;1.30;99.90
42365;DHT22;28498;54.400;18.566;2024-02-26T03:01:26;1.30;99.90
42365;DHT22;28498;54.400;18.566;2024-02-26T03:03:53;1.30;99.90
42365;DHT22;28498;54.400;18.566;2024-02-26T03:06:20;1.30;99.90
42365;DHT22;28498;54.400;18.566;2024-02-26T03:08:48;1.30;99.90
42365;DHT22;28498;54.400;18.566;2024-02-26T03:11:15;1.20;99.90
42365;DHT22;28498;54.400;18.566;2024-02-26T03:13:42;1.20;99.90
42365;DHT22;28498;54.400;18.566;2024-02-26T03:16:09;1.20;99.90
42365;DHT22;28498;54.400;18.566;2024-02-26T03:18:39;1.10;99.90
42365;DHT22;28498;54.400;18.566;2024-02-26T03:21:07;1.10;99.90
42365;DHT22;28498;54.400;18.566;2024-02-26T03:23:34;1.10;99.90
42365;DHT22;28498;54.400;18.566;2024-02-26T03:26:04;1.10;99.90
42365;DHT22;28498;54.400;18.566;2024-02-26T03:28:31;1.00;99.90
42365;DHT22;28498;54.400;18.566;2024-02-26T03:31:01;1.00;99.90
42365;DHT22;28498;54.400;18.566;2024-02-26T03:33:29;1.00;99.90
42365;DHT22;28498;54.400;18.566;2024-02-26T03:35:56;1.00;99.90
42365;DHT22;28498;54.400;18.566;2024-02-26T03:38:23;1.00;99.90
42365;DHT22;28498;54.400;18.566;2024-02-26T03:40:50;0.90;99.90
42365;DHT22;28498;54.400;18.566;2024-02-26T03:43:17;1.00;99.90
42365;DHT22;28498;54.400;18.566;2024-02-26T03:45:44;0.90;99.90
42365;DHT22;28498;54.400;18.566;2024-02-26T03:48:11;0.90;99.90
42365;DHT22;28498;54.400;18.566;2024-02-26T03:50:39;0.80;99.90
42365;DHT22;28498;54.400;18.566;2024-02-26T03:53:06;0.80;99.90
42365;DHT22;28498;54.400;18.566;2024-02-26T03:55:39;0.70;99.90
42365;DHT22;28498;54.400;18.566;2024-02-26T03:58:08;0.60;99.90
42365;DHT22;28498;54.400;18.566;2024-02-26T04:00:37;0.60;99.90
42365;DHT22;28498;54.400;18.566;2024-02-26T04:03:04;0.70;99.90
42365;DHT22;28498;54.400;18.566;2024-02-26T04:05:31;0.80;99.90
42365;DHT22;28498;54.400;18.566;2024-02-26T04:07:58;0.80;99.90
42365;DHT22;28498;54.400;18.566;2024-02-26T04:10:25;0.70;99.90
42365;DHT22;28498;54.400;18.566;2024-02-26T04:12:52;0.60;99.90
42365;DHT22;28498;54.400;18.566;2024-02-26T04:15:19;0.50;99.90
42365;DHT22;28498;54.400;18.566;2024-02-26T04:17:46;0.40;99.90
42365;DHT22;28498;54.400;18.566;2024-02-26T04:20:15;0.40;99.90
42365;DHT22;28498;54.400;18.566;2024-02-26T04:22:42;0.40;99.90
42365;DHT22;28498;54.400;18.566;2024-02-26T04:25:10;0.50;99.90
42365;DHT22;28498;54.400;18.566;2024-02-26T04:27:37;0.60;99.90
42365;DHT22;28498;54.400;18.566;2024-02-26T04:30:06;0.40;99.90
42365;DHT22;28498;54.400;18.566;2024-02-26T04:32:34;0.40;99.90
42365;DHT22;28498;54.400;18.566;2024-02-26T04:35:02;0.40;99.90
42365;DHT22;28498;54.400;18.566;2024-02-26T04:37:30;0.30;99.90
42365;DHT22;28498;54.400;18.566;2024-02-26T04:40:01;0.30;99.90
42365;DHT22;28498;54.400;18.566;2024-02-26T04:42:28;0.30;99.90
42365;DHT22;28498;54.400;18.566;2024-02-26T04:44:55;0.40;99.90
42365;DHT22;28498;54.400;18.566;2024-02-26T04:47:22;0.40;99.90
42365;DHT22;28498;54.400;18.566;2024-02-26T04:49:50;0.20;99.90
42365;DHT22;28498;54.400;18.566;2024-02-26T04:52:18;0.20;99.90
42365;DHT22;28498;54.400;18.566;2024-02-26T04:54:46;0.30;99.90
42365;DHT22;28498;54.400;18.566;2024-02-26T04:57:13;0.10;99.90
42365;DHT22;28498;54.400;18.566;2024-02-26T04:59:40;0.00;99.90
42365;DHT22;28498;54.400;18.566;2024-02-26T05:02:09;0.00;99.90
42365;DHT22;28498;54.400;18.566;2024-02-26T05:04:36;-0.10;99.90
42365;DHT22;28498;54.400;18.566;2024-02-26T05:07:03;-0.10;99.90
42365;DHT22;28498;54.400;18.566;2024-02-26T05:09:31;-0.10;99.90
42365;DHT22;28498;54.400;18.566;2024-02-26T05:11:58;-0.20;99.90
42365;DHT22;28498;54.400;18.566;2024-02-26T05:14:25;-0.20;99.90
42365;DHT22;28498;54.400;18.566;2024-02-26T05:16:52;-0.10;99.90
42365;DHT22;28498;54.400;18.566;2024-02-26T05:19:19;0.10;99.90
42365;DHT22;28498;54.400;18.566;2024-02-26T05:21:47;0.20;99.90
42365;DHT22;28498;54.400;18.566;2024-02-26T05:24:16;0.30;99.90
42365;DHT22;28498;54.400;18.566;2024-02-26T05:26:45;0.40;99.90
42365;DHT22;28498;54.400;18.566;2024-02-26T05:29:12;0.30;99.90
42365;DHT22;28498;54.400;18.566;2024-02-26T05:31:42;0.30;99.90
42365;DHT22;28498;54.400;18.566;2024-02-26T05:34:09;0.40;99.90
42365;DHT22;28498;54.400;18.566;2024-02-26T05:36:36;0.50;99.90
42365;DHT22;28498;54.400;18.566;2024-02-26T05:42:45;0.30;99.90
42365;DHT22;28498;54.400;18.566;2024-02-26T05:45:12;0.10;99.90
42365;DHT22;28498;54.400;18.566;2024-02-26T05:47:39;0.00;99.90
42365;DHT22;28498;54.400;18.566;2024-02-26T05:50:10;0.00;99.90
42365;DHT22;28498;54.400;18.566;2024-02-26T05:52:38;0.00;99.90
42365;DHT22;28498;54.400;18.566;2024-02-26T05:55:05;0.10;99.90
42365;DHT22;28498;54.400;18.566;2024-02-26T05:57:34;0.20;99.90
42365;DHT22;28498;54.400;18.566;2024-02-26T06:00:01;0.30;99.90
42365;DHT22;28498;54.400;18.566;2024-02-26T06:02:31;0.40;99.90
42365;DHT22;28498;54.400;18.566;2024-02-26T06:04:58;0.40;99.90
42365;DHT22;28498;54.400;18.566;2024-02-26T06:07:25;0.40;99.90
42365;DHT22;28498;54.400;18.566;2024-02-26T06:09:52;0.40;99.90
42365;DHT22;28498;54.400;18.566;2024-02-26T06:12:19;0.30;99.90
42365;DHT22;28498;54.400;18.566;2024-02-26T06:14:47;0.40;99.90
42365;DHT22;28498;54.400;18.566;2024-02-26T06:17:14;0.40;99.90
42365;DHT22;28498;54.400;18.566;2024-02-26T06:19:41;0.50;99.90
42365;DHT22;28498;54.400;18.566;2024-02-26T06:22:08;0.50;99.90
42365;DHT22;28498;54.400;18.566;2024-02-26T06:24:35;0.50;99.90
42365;DHT22;28498;54.400;18.566;2024-02-26T06:27:02;0.60;99.90
42365;DHT22;28498;54.400;18.566;2024-02-26T06:29:29;0.70;99.90
42365;DHT22;28498;54.400;18.566;2024-02-26T06:31:56;0.80;99.90
42365;DHT22;28498;54.400;18.566;2024-02-26T06:34:23;0.90;99.90
42365;DHT22;28498;54.400;18.566;2024-02-26T06:36:50;0.90;99.90
42365;DHT22;28498;54.400;18.566;2024-02-26T06:39:17;0.90;99.90
42365;DHT22;28498;54.400;18.566;2024-02-26T06:41:45;0.90;99.90
42365;DHT22;28498;54.400;18.566;2024-02-26T06:44:14;1.00;99.90
42365;DHT22;28498;54.400;18.566;2024-02-26T06:46:41;1.10;99.90
42365;DHT22;28498;54.400;18.566;2024-02-26T06:49:08;1.10;99.90
42365;DHT22;28498;54.400;18.566;2024-02-26T06:51:35;1.30;99.90
42365;DHT22;28498;54.400;18.566;2024-02-26T06:54:02;1.40;99.90
42365;DHT22;28498;54.400;18.566;2024-02-26T06:56:30;1.50;99.90
42365;DHT22;28498;54.400;18.566;2024-02-26T06:58:57;1.50;99.90
42365;DHT22;28498;54.400;18.566;2024-02-26T07:01:24;1.60;99.90
42365;DHT22;28498;54.400;18.566;2024-02-26T07:03:54;1.70;99.90
42365;DHT22;28498;54.400;18.566;2024-02-26T07:06:21;1.70;99.90
42365;DHT22;28498;54.400;18.566;2024-02-26T07:08:48;1.80;99.90
42365;DHT22;28498;54.400;18.566;2024-02-26T07:11:16;1.90;99.90
42365;DHT22;28498;54.400;18.566;2024-02-26T07:13:43;2.00;99.90
42365;DHT22;28498;54.400;18.566;2024-02-26T07:16:10;2.20;99.90
42365;DHT22;28498;54.400;18.566;2024-02-26T07:18:40;2.40;99.90
42365;DHT22;28498;54.400;18.566;2024-02-26T07:21:07;3.10;99.90
42365;DHT22;28498;54.400;18.566;2024-02-26T07:23:35;3.30;99.90
42365;DHT22;28498;54.400;18.566;2024-02-26T07:26:02;3.40;99.90
42365;DHT22;28498;54.400;18.566;2024-02-26T07:28:29;3.30;99.90
42365;DHT22;28498;54.400;18.566;2024-02-26T07:30:56;3.30;99.90
42365;DHT22;28498;54.400;18.566;2024-02-26T07:33:23;3.50;99.90
42365;DHT22;28498;54.400;18.566;2024-02-26T07:35:50;3.80;99.90
42365;DHT22;28498;54.400;18.566;2024-02-26T07:38:17;3.90;99.90
42365;DHT22;28498;54.400;18.566;2024-02-26T07:40:58;4.20;99.90
42365;DHT22;28498;54.400;18.566;2024-02-26T07:43:29;4.20;99.90
42365;DHT22;28498;54.400;18.566;2024-02-26T07:45:57;4.20;99.90
42365;DHT22;28498;54.400;18.566;2024-02-26T07:48:24;4.20;99.90
42365;DHT22;28498;54.400;18.566;2024-02-26T07:50:52;4.10;99.90
42365;DHT22;28498;54.400;18.566;2024-02-26T07:53:19;4.10;99.90
42365;DHT22;28498;54.400;18.566;2024-02-26T07:55:46;4.20;99.90
42365;DHT22;28498;54.400;18.566;2024-02-26T07:58:14;4.30;99.90
42365;DHT22;28498;54.400;18.566;2024-02-26T08:00:41;4.30;99.90
42365;DHT22;28498;54.400;18.566;2024-02-26T08:03:08;4.40;99.90
42365;DHT22;28498;54.400;18.566;2024-02-26T08:05:35;4.60;99.90
42365;DHT22;28498;54.400;18.566;2024-02-26T08:08:03;4.70;99.90
42365;DHT22;28498;54.400;18.566;2024-02-26T08:10:30;4.90;99.90
42365;DHT22;28498;54.400;18.566;2024-02-26T08:12:59;5.00;99.90
42365;DHT22;28498;54.400;18.566;2024-02-26T08:15:32;5.20;99.90
42365;DHT22;28498;54.400;18.566;2024-02-26T08:18:02;5.40;99.90
42365;DHT22;28498;54.400;18.566;2024-02-26T08:20:31;5.50;99.90
42365;DHT22;28498;54.400;18.566;2024-02-26T08:22:58;5.60;99.90
42365;DHT22;28498;54.400;18.566;2024-02-26T08:25:25;5.80;99.90
42365;DHT22;28498;54.400;18.566;2024-02-26T08:27:52;6.00;99.90
42365;DHT22;28498;54.400;18.566;2024-02-26T08:30:19;6.10;99.90
42365;DHT22;28498;54.400;18.566;2024-02-26T08:32:47;6.30;99.90
42365;DHT22;28498;54.400;18.566;2024-02-26T08:35:18;6.40;99.90
42365;DHT22;28498;54.400;18.566;2024-02-26T08:37:46;6.60;99.90
42365;DHT22;28498;54.400;18.566;2024-02-26T08:40:14;6.80;99.90
42365;DHT22;28498;54.400;18.566;2024-02-26T08:42:41;6.90;99.90
42365;DHT22;28498;54.400;18.566;2024-02-26T08:45:09;7.10;99.90
42365;DHT22;28498;54.400;18.566;2024-02-26T08:47:36;7.20;99.90
42365;DHT22;28498;54.400;18.566;2024-02-26T08:50:05;7.40;99.90
42365;DHT22;28498;54.400;18.566;2024-02-26T08:52:32;7.50;99.90
42365;DHT22;28498;54.400;18.566;2024-02-26T08:55:00;7.60;99.90
42365;DHT22;28498;54.400;18.566;2024-02-26T08:57:27;7.80;99.90
42365;DHT22;28498;54.400;18.566;2024-02-26T08:59:54;7.90;99.90
42365;DHT22;28498;54.400;18.566;2024-02-26T09:02:21;8.00;99.90
42365;DHT22;28498;54.400;18.566;2024-02-26T09:04:48;8.10;99.90
42365;DHT22;28498;54.400;18.566;2024-02-26T09:07:18;8.20;99.90
42365;DHT22;28498;54.400;18.566;2024-02-26T09:09:45;8.40;99.90
42365;DHT22;28498;54.400;18.566;2024-02-26T09:12:12;8.50;99.90
42365;DHT22;28498;54.400;18.566;2024-02-26T09:14:39;8.60;99.90
42365;DHT22;28498;54.400;18.566;2024-02-26T09:17:06;8.70;99.90
42365;DHT22;28498;54.400;18.566;2024-02-26T09:19:34;8.80;99.90
42365;DHT22;28498;54.400;18.566;2024-02-26T09:22:02;8.80;99.90
42365;DHT22;28498;54.400;18.566;2024-02-26T09:24:29;9.00;99.90
42365;DHT22;28498;54.400;18.566;2024-02-26T09:26:56;9.10;99.90
42365;DHT22;28498;54.400;18.566;2024-02-26T09:29:23;9.20;99.90
42365;DHT22;28498;54.400;18.566;2024-02-26T09:31:50;9.30;99.90
42365;DHT22;28498;54.400;18.566;2024-02-26T09:34:18;9.40;99.90
42365;DHT22;28498;54.400;18.566;2024-02-26T09:36:45;9.50;99.90
42365;DHT22;28498;54.400;18.566;2024-02-26T09:39:12;9.60;99.90
42365;DHT22;28498;54.400;18.566;2024-02-26T09:41:44;9.70;99.90
42365;DHT22;28498;54.400;18.566;2024-02-26T09:44:13;9.70;99.90
42365;DHT22;28498;54.400;18.566;2024-02-26T09:46:41;9.80;99.90
42365;DHT22;28498;54.400;18.566;2024-02-26T09:49:09;9.80;99.90
42365;DHT22;28498;54.400;18.566;2024-02-26T09:51:37;9.80;99.90
42365;DHT22;28498;54.400;18.566;2024-02-26T09:54:09;9.90;99.90
42365;DHT22;28498;54.400;18.566;2024-02-26T09:56:39;9.90;99.90
42365;DHT22;28498;54.400;18.566;2024-02-26T09:59:22;10.00;99.90
42365;DHT22;28498;54.400;18.566;2024-02-26T10:01:49;10.00;99.90
42365;DHT22;28498;54.400;18.566;2024-02-26T10:04:17;10.00;99.90
42365;DHT22;28498;54.400;18.566;2024-02-26T10:06:46;10.00;99.90
42365;DHT22;28498;54.400;18.566;2024-02-26T10:09:14;10.00;99.90
42365;DHT22;28498;54.400;18.566;2024-02-26T10:11:43;10.10;99.90
42365;DHT22;28498;54.400;18.566;2024-02-26T10:14:10;10.10;99.90
42365;DHT22;28498;54.400;18.566;2024-02-26T10:16:39;10.00;99.90
42365;DHT22;28498;54.400;18.566;2024-02-26T10:19:06;10.00;99.90
42365;DHT22;28498;54.400;18.566;2024-02-26T10:21:33;10.10;99.90
42365;DHT22;28498;54.400;18.566;2024-02-26T10:24:00;10.10;99.90
42365;DHT22;28498;54.400;18.566;2024-02-26T10:26:28;10.00;99.90
42365;DHT22;28498;54.400;18.566;2024-02-26T10:28:59;10.00;99.90
42365;DHT22;28498;54.400;18.566;2024-02-26T10:31:27;10.10;99.90
42365;DHT22;28498;54.400;18.566;2024-02-26T10:33:55;10.00;99.90
42365;DHT22;28498;54.400;18.566;2024-02-26T10:36:26;10.00;99.90
42365;DHT22;28498;54.400;18.566;2024-02-26T10:39:12;10.00;99.90
42365;DHT22;28498;54.400;18.566;2024-02-26T10:41:43;10.00;99.90
42365;DHT22;28498;54.400;18.566;2024-02-26T10:44:12;10.10;99.90
42365;DHT22;28498;54.400;18.566;2024-02-26T10:46:46;10.10;99.90
42365;DHT22;28498;54.400;18.566;2024-02-26T10:49:17;10.10;99.90
42365;DHT22;28498;54.400;18.566;2024-02-26T10:51:55;10.00;99.90
42365;DHT22;28498;54.400;18.566;2024-02-26T10:54:26;10.10;99.90
42365;DHT22;28498;54.400;18.566;2024-02-26T10:56:56;10.10;99.90
42365;DHT22;28498;54.400;18.566;2024-02-26T10:59:24;10.10;99.90
42365;DHT22;28498;54.400;18.566;2024-02-26T11:01:52;10.20;99.90
42365;DHT22;28498;54.400;18.566;2024-02-26T11:04:20;10.10;99.90
42365;DHT22;28498;54.400;18.566;2024-02-26T11:06:49;10.10;99.90
42365;DHT22;28498;54.400;18.566;2024-02-26T11:09:17;10.10;99.90
42365;DHT22;28498;54.400;18.566;2024-02-26T11:11:47;10.20;99.90
42365;DHT22;28498;54.400;18.566;2024-02-26T11:14:15;10.10;99.90
42365;DHT22;28498;54.400;18.566;2024-02-26T11:16:43;10.10;99.90
42365;DHT22;28498;54.400;18.566;2024-02-26T11:19:11;10.00;99.90
42365;DHT22;28498;54.400;18.566;2024-02-26T11:21:41;9.90;99.90
42365;DHT22;28498;54.400;18.566;2024-02-26T11:24:12;10.00;99.90
42365;DHT22;28498;54.400;18.566;2024-02-26T11:26:52;10.00;99.90
42365;DHT22;28498;54.400;18.566;2024-02-26T11:29:37;10.00;99.90
42365;DHT22;28498;54.400;18.566;2024-02-26T11:32:06;10.00;99.90
42365;DHT22;28498;54.400;18.566;2024-02-26T11:34:33;9.90;99.90
42365;DHT22;28498;54.400;18.566;2024-02-26T11:37:14;9.80;99.90
42365;DHT22;28498;54.400;18.566;2024-02-26T11:39:42;9.90;99.90
42365;DHT22;28498;54.400;18.566;2024-02-26T11:42:09;9.90;99.90
42365;DHT22;28498;54.400;18.566;2024-02-26T11:44:37;9.70;99.90
42365;DHT22;28498;54.400;18.566;2024-02-26T11:47:18;9.70;99.90
42365;DHT22;28498;54.400;18.566;2024-02-26T11:49:46;9.60;99.90
42365;DHT22;28498;54.400;18.566;2024-02-26T11:52:14;9.70;99.90
42365;DHT22;28498;54.400;18.566;2024-02-26T11:54:46;9.70;99.90
42365;DHT22;28498;54.400;18.566;2024-02-26T11:57:29;9.60;99.90
42365;DHT22;28498;54.400;18.566;2024-02-26T12:00:13;9.70;99.90
42365;DHT22;28498;54.400;18.566;2024-02-26T12:02:46;9.60;99.90
42365;DHT22;28498;54.400;18.566;2024-02-26T12:05:21;9.60;99.90
42365;DHT22;28498;54.400;18.566;2024-02-26T12:07:56;9.50;99.90
42365;DHT22;28498;54.400;18.566;2024-02-26T12:10:36;9.50;99.90
42365;DHT22;28498;54.400;18.566;2024-02-26T12:13:11;9.60;99.90
42365;DHT22;28498;54.400;18.566;2024-02-26T12:18:18;9.50;99.90
42365;DHT22;28498;54.400;18.566;2024-02-26T12:21:00;9.40;99.90
42365;DHT22;28498;54.400;18.566;2024-02-26T12:23:28;9.30;99.90
42365;DHT22;28498;54.400;18.566;2024-02-26T12:26:01;9.10;99.90
42365;DHT22;28498;54.400;18.566;2024-02-26T12:28:33;9.00;99.90
42365;DHT22;28498;54.400;18.566;2024-02-26T12:31:01;9.10;99.90
42365;DHT22;28498;54.400;18.566;2024-02-26T12:33:28;9.00;99.90
42365;DHT22;28498;54.400;18.566;2024-02-26T12:35:56;9.00;99.90
42365;DHT22;28498;54.400;18.566;2024-02-26T12:38:24;9.00;99.90
42365;DHT22;28498;54.400;18.566;2024-02-26T12:40:51;9.00;99.90
42365;DHT22;28498;54.400;18.566;2024-02-26T12:43:18;8.90;99.90
42365;DHT22;28498;54.400;18.566;2024-02-26T12:45:45;8.80;99.90
42365;DHT22;28498;54.400;18.566;2024-02-26T12:48:14;8.70;99.90
42365;DHT22;28498;54.400;18.566;2024-02-26T12:50:45;8.70;99.90
42365;DHT22;28498;54.400;18.566;2024-02-26T12:53:14;8.60;99.90
42365;DHT22;28498;54.400;18.566;2024-02-26T12:55:42;8.50;99.90
42365;DHT22;28498;54.400;18.566;2024-02-26T12:58:10;8.50;99.90
42365;DHT22;28498;54.400;18.566;2024-02-26T13:00:38;8.50;99.90
42365;DHT22;28498;54.400;18.566;2024-02-26T13:03:05;8.50;99.90
42365;DHT22;28498;54.400;18.566;2024-02-26T13:05:33;8.50;99.90
42365;DHT22;28498;54.400;18.566;2024-02-26T13:08:01;8.40;99.90
42365;DHT22;28498;54.400;18.566;2024-02-26T13:10:32;8.30;99.90
42365;DHT22;28498;54.400;18.566;2024-02-26T13:13:02;8.10;99.90
42365;DHT22;28498;54.400;18.566;2024-02-26T13:15:29;8.00;99.90
42365;DHT22;28498;54.400;18.566;2024-02-26T13:17:56;8.00;99.90
42365;DHT22;28498;54.400;18.566;2024-02-26T13:20:29;7.90;99.90
42365;DHT22;28498;54.400;18.566;2024-02-26T13:23:05;7.80;99.90
42365;DHT22;28498;54.400;18.566;2024-02-26T13:25:33;7.80;99.90
42365;DHT22;28498;54.400;18.566;2024-02-26T13:28:13;7.70;99.90
42365;DHT22;28498;54.400;18.566;2024-02-26T13:30:41;7.70;99.90
42365;DHT22;28498;54.400;18.566;2024-02-26T13:33:10;7.60;99.90
42365;DHT22;28498;54.400;18.566;2024-02-26T13:35:38;7.60;99.90
42365;DHT22;28498;54.400;18.566;2024-02-26T13:38:10;7.60;99.90
42365;DHT22;28498;54.400;18.566;2024-02-26T13:40:37;7.70;99.90
42365;DHT22;28498;54.400;18.566;2024-02-26T13:43:06;7.70;99.90
42365;DHT22;28498;54.400;18.566;2024-02-26T13:45:34;7.70;99.90
42365;DHT22;28498;54.400;18.566;2024-02-26T13:48:03;7.70;99.90
42365;DHT22;28498;54.400;18.566;2024-02-26T13:50:31;7.70;99.90
42365;DHT22;28498;54.400;18.566;2024-02-26T13:52:59;7.70;99.90
42365;DHT22;28498;54.400;18.566;2024-02-26T13:55:26;7.60;99.90
42365;DHT22;28498;54.400;18.566;2024-02-26T13:57:55;7.70;99.90
42365;DHT22;28498;54.400;18.566;2024-02-26T14:00:24;7.60;99.90
42365;DHT22;28498;54.400;18.566;2024-02-26T14:02:58;7.50;99.90
42365;DHT22;28498;54.400;18.566;2024-02-26T14:05:25;7.50;99.90
42365;DHT22;28498;54.400;18.566;2024-02-26T14:07:53;7.50;99.90
42365;DHT22;28498;54.400;18.566;2024-02-26T14:10:22;7.50;99.90
42365;DHT22;28498;54.400;18.566;2024-02-26T14:12:49;7.40;99.90
42365;DHT22;28498;54.400;18.566;2024-02-26T14:15:16;7.40;99.90
42365;DHT22;28498;54.400;18.566;2024-02-26T14:17:43;7.50;99.90
42365;DHT22;28498;54.400;18.566;2024-02-26T14:20:10;7.40;99.90
42365;DHT22;28498;54.400;18.566;2024-02-26T14:22:37;7.20;99.90
42365;DHT22;28498;54.400;18.566;2024-02-26T14:25:05;7.30;99.90
42365;DHT22;28498;54.400;18.566;2024-02-26T14:27:32;7.20;99.90
42365;DHT22;28498;54.400;18.566;2024-02-26T14:29:59;7.20;99.90
42365;DHT22;28498;54.400;18.566;2024-02-26T14:32:26;7.10;99.90
42365;DHT22;28498;54.400;18.566;2024-02-26T14:34:56;7.10;99.90
42365;DHT22;28498;54.400;18.566;2024-02-26T14:37:24;7.00;99.90
42365;DHT22;28498;54.400;18.566;2024-02-26T14:39:51;6.90;99.90
42365;DHT22;28498;54.400;18.566;2024-02-26T14:42:19;6.90;99.90
42365;DHT22;28498;54.400;18.566;2024-02-26T14:44:46;6.80;99.90
42365;DHT22;28498;54.400;18.566;2024-02-26T14:47:14;6.80;99.90
42365;DHT22;28498;54.400;18.566;2024-02-26T14:49:41;6.60;99.90
42365;DHT22;28498;54.400;18.566;2024-02-26T14:52:09;6.60;99.90
42365;DHT22;28498;54.400;18.566;2024-02-26T14:54:36;6.50;99.90
42365;DHT22;28498;54.400;18.566;2024-02-26T14:57:06;6.50;99.90
42365;DHT22;28498;54.400;18.566;2024-02-26T14:59:33;6.40;99.90
42365;DHT22;28498;54.400;18.566;2024-02-26T15:02:01;6.30;99.90
42365;DHT22;28498;54.400;18.566;2024-02-26T15:04:28;6.20;99.90
42365;DHT22;28498;54.400;18.566;2024-02-26T15:06:55;6.20;99.90
42365;DHT22;28498;54.400;18.566;2024-02-26T15:09:22;6.20;99.90
42365;DHT22;28498;54.400;18.566;2024-02-26T15:11:49;6.20;99.90
42365;DHT22;28498;54.400;18.566;2024-02-26T15:14:16;6.20;99.90
42365;DHT22;28498;54.400;18.566;2024-02-26T15:16:44;6.20;99.90
42365;DHT22;28498;54.400;18.566;2024-02-26T15:19:11;6.20;99.90
42365;DHT22;28498;54.400;18.566;2024-02-26T15:21:44;6.10;99.90
42365;DHT22;28498;54.400;18.566;2024-02-26T15:24:11;6.10;99.90
42365;DHT22;28498;54.400;18.566;2024-02-26T15:26:39;6.00;99.90
42365;DHT22;28498;54.400;18.566;2024-02-26T15:29:09;6.00;99.90
42365;DHT22;28498;54.400;18.566;2024-02-26T15:31:36;5.90;99.90
42365;DHT22;28498;54.400;18.566;2024-02-26T15:34:04;5.80;99.90
42365;DHT22;28498;54.400;18.566;2024-02-26T15:36:31;5.70;99.90
42365;DHT22;28498;54.400;18.566;2024-02-26T15:38:58;5.70;99.90
42365;DHT22;28498;54.400;18.566;2024-02-26T15:41:25;5.60;99.90
42365;DHT22;28498;54.400;18.566;2024-02-26T15:43:52;5.50;99.90